FMMIFMCZ

Guest
Details From FMMI - Ivato
To FMCZ - Dzaoudzi Pamandzi
Flight Number -
Tags Generated
Created
Modified
Stats Distance 381 nm / 706 km
Max Altitude 0 ft / 0 m
Waypoints 3
Social Downloads 1
Likes 0
Share VATSIM

Download

Looking for another format? Having issues loading an existing format? Contact us
Advertisement - Login to hide

Notes

Generated

Route

FMMI DZP FMCZ

ID Type Via Altitude Latitude Longitude Leg Dist Tot Dist Heading (true) Name
O FMMI APT - 0 ft / 0 m -18.79479˚ 47.46427˚ - 0 nm - -
DZP VOR - 0 ft / 0 m -12.81100˚ 45.28086˚ 380 nm 380 nm 340° / 341° DZAOUDZI PAMANDZI VOR-DME
O FMCZ APT - 0 ft / 0 m -12.80219˚ 45.27792˚ 0 nm 381 nm 342° / 342° -

Altitude Profile

Advertisement - Login to hide

Weather


0- 5 10 15 20 25 30 35+ Temperature / ° C

Clouds and Precipitation
Forecast for 2017-12-18 00:00 UTC. Updated 30 minutes ago

Ground ~20,000 ft ~40,000 ft Winds

FMMI

Details ICAO FMMI (TNR)
Name IVATO
Region Comoros, Mayotte, Réunion and Madagascar
Timezone Indian/Antananarivo (UTC+3.0)
Stats Elevation 4,198 ft / 1,280 m (AMSL)
Location -18.796950° 47.478806°
Runways 1
Magnetic Variation 15.161° W

METAR

FMMI 172130Z 09005KT 9999 FEW010 BKN020 18/17 Q1021 NOSIG

Decode

TAF

TAF FMMI 171100Z 1712/1818 13010KT 9999 SCT017 BKN020= TAF FMCH 171100Z 1712/1818 30008KT 9999 SCT020TCU SCT030 PROB30 TEMPO 1712/1717 4000 TS SHRA BKN015CB PROB30 TEMPO 1718/1724 4000 SHRA

Decode

Departure Runways

ID Width Length Bearing (true) Bearing (mag) Surface Threshold Offset Overrun Length
11 148 ft / 45 m 10,167 ft / 3,099 m 98.92° 114.08° Asphalt 0 ft / 0 m 90 ft / 27 m
29 148 ft / 45 m 10,167 ft / 3,099 m 278.91° 294.07° Asphalt 0 ft / 0 m 90 ft / 27 m

FMCZ

Details ICAO FMCZ (DZA)
Name Dzaoudzi Pamandzi
Region Comoros, Mayotte, Réunion and Madagascar
Timezone Unknown (UTC+0.0)
Stats Elevation 23 ft / 7 m (AMSL)
Location -12.809439° 45.282224°
Runways 1
Magnetic Variation 8.134° W

METAR

FMCZ 172130Z AUTO 03012KT 9999 SCT020/// SCT036/// BKN054/// 26/23 Q1012 TEMPO 4000 SHRA FEW013CB SCT018TCU

Decode

TAF

Not found

Destination Runways

ID Width Length Bearing (true) Bearing (mag) Surface Threshold Offset Overrun Length
16 92 ft / 28 m 6,109 ft / 1,862 m 149.93° 158.06° Asphalt 250 ft / 76 m 250 ft / 76 m
34 92 ft / 28 m 6,109 ft / 1,862 m 329.93° 338.06° Asphalt 0 ft / 0 m 82 ft / 25 m

Popular Alternatives